createdAt,value
2023-02-28T00:01:28.283Z,3.34
2023-02-28T00:03:55.094Z,5.15
2023-02-28T00:06:22.161Z,6.36
2023-02-28T00:08:48.967Z,5.65
2023-02-28T00:11:16.537Z,4.87
2023-02-28T00:13:49.657Z,4.33
2023-02-28T00:16:22.215Z,3.95
2023-02-28T00:18:49.556Z,3.67
2023-02-28T00:21:18.623Z,3.45
2023-02-28T00:23:45.391Z,3.24
2023-02-28T00:26:12.371Z,3.06
2023-02-28T00:28:38.976Z,3.17
2023-02-28T00:31:05.891Z,4.79
2023-02-28T00:33:32.781Z,6.14
2023-02-28T00:36:11.165Z,5.52
2023-02-28T00:38:39.276Z,4.66
2023-02-28T00:41:06.416Z,4.12
2023-02-28T00:43:35.193Z,3.74
2023-02-28T00:46:03.226Z,3.44
2023-02-28T00:48:30.319Z,3.22
2023-02-28T00:50:56.901Z,3.01
2023-02-28T00:53:23.666Z,2.84
2023-02-28T00:55:51.263Z,2.67
2023-02-28T00:58:18.395Z,2.51
2023-02-28T01:00:49.101Z,2.87
2023-02-28T01:03:18.144Z,4.79
2023-02-28T01:05:45.475Z,6.01
2023-02-28T01:08:12.362Z,5.26
2023-02-28T01:10:38.879Z,4.42
2023-02-28T01:13:05.741Z,3.87
2023-02-28T01:15:32.906Z,3.49
2023-02-28T01:17:59.518Z,3.19
2023-02-28T01:20:26.095Z,2.95
2023-02-28T01:22:52.729Z,2.75
2023-02-28T01:25:19.376Z,2.92
2023-02-28T01:27:45.945Z,4.63
2023-02-28T01:30:12.793Z,5.92
2023-02-28T01:32:39.343Z,5.27
2023-02-28T01:35:06.253Z,4.42
2023-02-28T01:37:32.872Z,3.84
2023-02-28T01:39:59.363Z,3.41
2023-02-28T01:42:25.940Z,3.09
2023-02-28T01:45:19.956Z,2.82
2023-02-28T01:47:48.861Z,3.21
2023-02-28T01:50:21.541Z,5.08
2023-02-28T01:52:49.013Z,6.14
2023-02-28T01:55:17.578Z,5.24
2023-02-28T01:57:49.634Z,4.34
2023-02-28T02:00:20.983Z,3.72
2023-02-28T02:02:52.038Z,3.27
2023-02-28T02:05:24.687Z,2.92
2023-02-28T02:07:56.953Z,2.62
2023-02-28T02:10:49.719Z,3.13
2023-02-28T02:13:26.442Z,5.28
2023-02-28T02:16:12.317Z,5.74
2023-02-28T02:18:53.590Z,4.61
2023-02-28T02:21:51.113Z,3.75
2023-02-28T02:25:17.163Z,3.13
2023-02-28T02:28:20.552Z,2.63
2023-02-28T02:31:00.474Z,2.28
2023-02-28T02:33:52.412Z,3.03
2023-02-28T02:36:25.058Z,5.16
2023-02-28T02:38:58.015Z,5.54
2023-02-28T02:41:51.468Z,4.46
2023-02-28T02:44:32.400Z,3.52
2023-02-28T02:47:06.833Z,2.94
2023-02-28T02:49:36.340Z,2.53
2023-02-28T02:52:08.901Z,2.20
2023-02-28T02:54:38.931Z,2.38
2023-02-28T02:57:17.392Z,4.12
2023-02-28T02:59:44.195Z,5.31
2023-02-28T03:02:16.183Z,4.44
2023-02-28T03:05:01.820Z,3.53
2023-02-28T03:07:28.448Z,2.85
2023-02-28T03:09:57.766Z,2.42
2023-02-28T03:12:34.652Z,2.07
2023-02-28T03:15:54.934Z,2.31
2023-02-28T03:18:49.344Z,4.67
2023-02-28T03:21:42.639Z,5.37
2023-02-28T03:24:12.785Z,4.13
2023-02-28T03:26:44.312Z,3.31
2023-02-28T03:29:44.022Z,2.74
2023-02-28T03:32:22.404Z,2.26
2023-02-28T03:35:06.404Z,1.91
2023-02-28T03:37:36.671Z,1.72
2023-02-28T03:40:09.423Z,3.09
2023-02-28T03:42:37.045Z,4.91
2023-02-28T03:45:09.752Z,5.46
2023-02-28T03:47:43.684Z,4.37
2023-02-28T03:50:21.157Z,3.42
2023-02-28T03:53:04.967Z,2.77
2023-02-28T03:55:52.282Z,2.28
2023-02-28T03:58:37.841Z,1.90
2023-02-28T04:01:26.295Z,2.59
2023-02-28T04:03:52.890Z,4.68
2023-02-28T04:06:22.148Z,5.23
2023-02-28T04:08:49.196Z,4.15
2023-02-28T04:11:53.635Z,3.25
2023-02-28T04:14:20.132Z,2.51
2023-02-28T04:16:47.351Z,2.09
2023-02-28T04:19:15.082Z,1.87
2023-02-28T04:21:44.838Z,3.16
2023-02-28T04:24:15.406Z,4.91
2023-02-28T04:26:45.254Z,5.02
2023-02-28T04:29:15.918Z,3.89
2023-02-28T04:31:42.431Z,3.04
2023-02-28T04:34:08.983Z,2.47
2023-02-28T04:36:35.542Z,2.04
2023-02-28T04:39:02.562Z,1.69
2023-02-28T04:41:32.338Z,1.87
2023-02-28T04:43:59.312Z,3.63
2023-02-28T04:46:25.814Z,4.76
2023-02-28T04:48:52.325Z,3.93
2023-02-28T04:51:20.185Z,3.01
2023-02-28T04:53:47.614Z,2.36
2023-02-28T04:56:16.738Z,1.90
2023-02-28T04:58:43.928Z,1.79
2023-02-28T05:01:25.575Z,3.30
2023-02-28T05:03:54.822Z,4.66
2023-02-28T05:06:24.868Z,3.89
2023-02-28T05:08:52.923Z,2.94
2023-02-28T05:11:29.973Z,2.27
2023-02-28T05:13:56.780Z,1.77
2023-02-28T05:16:23.355Z,1.74
2023-02-28T05:18:49.931Z,3.27
2023-02-28T05:21:34.612Z,4.75
2023-02-28T05:24:09.096Z,4.11
2023-02-28T05:26:42.077Z,3.07
2023-02-28T05:29:09.718Z,2.35
2023-02-28T05:31:37.271Z,1.84
2023-02-28T05:34:06.685Z,1.45
2023-02-28T05:36:33.962Z,1.61
2023-02-28T05:39:00.650Z,3.38
2023-02-28T05:41:27.610Z,4.64
2023-02-28T05:43:54.382Z,3.85
2023-02-28T05:46:21.328Z,2.86
2023-02-28T05:48:48.759Z,2.19
2023-02-28T05:51:15.708Z,1.69
2023-02-28T05:53:42.274Z,1.78
2023-02-28T05:56:09.310Z,3.53
2023-02-28T05:58:35.916Z,4.76
2023-02-28T06:01:48.404Z,3.87
2023-02-28T06:04:30.668Z,2.65
2023-02-28T06:06:57.901Z,1.97
2023-02-28T06:09:25.416Z,1.51
2023-02-28T06:11:52.097Z,1.15
2023-02-28T06:14:20.137Z,1.44
2023-02-28T06:16:47.529Z,3.24
2023-02-28T06:19:15.390Z,4.43
2023-02-28T06:21:42.212Z,3.60
2023-02-28T06:24:08.900Z,2.65
2023-02-28T06:26:36.221Z,1.97
2023-02-28T06:29:03.740Z,1.50
2023-02-28T06:31:30.937Z,2.22
2023-02-28T06:33:58.044Z,3.96
2023-02-28T06:36:24.782Z,4.87
2023-02-28T06:38:54.996Z,3.91
2023-02-28T06:41:28.007Z,2.93
2023-02-28T06:43:55.335Z,2.25
2023-02-28T06:46:22.587Z,1.78
2023-02-28T06:48:49.964Z,1.92
2023-02-28T06:51:24.529Z,3.57
2023-02-28T06:53:51.439Z,4.71
2023-02-28T06:56:20.455Z,3.82
2023-02-28T06:58:52.785Z,2.91
2023-02-28T07:01:19.915Z,2.27
2023-02-28T07:03:47.097Z,1.84
2023-02-28T07:06:13.695Z,2.01
2023-02-28T07:08:41.397Z,3.96
2023-02-28T07:11:07.957Z,5.03
2023-02-28T07:13:34.485Z,4.12
2023-02-28T07:16:05.698Z,3.20
2023-02-28T07:18:32.654Z,2.56
2023-02-28T07:21:03.189Z,2.11
2023-02-28T07:23:29.791Z,1.83
2023-02-28T07:25:56.269Z,2.97
2023-02-28T07:28:23.109Z,4.77
2023-02-28T07:30:50.194Z,5.45
2023-02-28T07:33:17.063Z,4.39
2023-02-28T07:35:44.318Z,3.50
2023-02-28T07:38:11.884Z,2.90
2023-02-28T07:40:38.442Z,2.47
2023-02-28T07:43:05.077Z,2.50
2023-02-28T07:45:34.854Z,4.20
2023-02-28T07:48:02.174Z,5.05
2023-02-28T07:50:31.070Z,4.17
2023-02-28T07:52:59.392Z,3.42
2023-02-28T07:55:26.041Z,2.89
2023-02-28T07:57:52.576Z,2.94
2023-02-28T08:00:19.506Z,4.57
2023-02-28T08:02:46.177Z,5.67
2023-02-28T08:05:12.878Z,4.91
2023-02-28T08:07:39.649Z,4.08
2023-02-28T08:10:07.292Z,3.53
2023-02-28T08:12:33.897Z,3.15
2023-02-28T08:15:00.478Z,2.87
2023-02-28T08:17:27.278Z,2.65
2023-02-28T08:19:53.842Z,2.95
2023-02-28T08:22:20.379Z,4.80
2023-02-28T08:24:49.594Z,5.98
2023-02-28T08:27:16.215Z,5.24
2023-02-28T08:29:42.673Z,4.44
2023-02-28T08:32:17.414Z,3.92
2023-02-28T08:34:50.205Z,3.55
2023-02-28T08:37:17.238Z,3.29
2023-02-28T08:39:43.788Z,3.12
2023-02-28T08:42:10.424Z,3.41
2023-02-28T08:44:37.005Z,5.15
2023-02-28T08:47:04.014Z,5.22
2023-02-28T08:49:30.537Z,4.52
2023-02-28T08:51:57.525Z,4.07
2023-02-28T08:54:24.803Z,3.84
2023-02-28T08:56:52.099Z,3.68
2023-02-28T08:59:18.723Z,3.55
2023-02-28T09:01:45.387Z,3.50
2023-02-28T09:04:13.275Z,3.49
2023-02-28T09:06:42.400Z,3.55
2023-02-28T09:09:09.960Z,3.64
2023-02-28T09:11:37.696Z,3.83
2023-02-28T09:14:04.686Z,4.08
2023-02-28T09:16:35.346Z,4.34
2023-02-28T09:19:02.704Z,4.57
2023-02-28T09:21:29.862Z,4.86
2023-02-28T09:23:56.861Z,5.21
2023-02-28T09:26:34.646Z,5.55
2023-02-28T09:29:05.894Z,5.98
2023-02-28T09:31:33.340Z,6.41
2023-02-28T09:34:00.436Z,6.84
2023-02-28T09:36:41.546Z,7.26
2023-02-28T09:39:10.526Z,7.72
2023-02-28T09:41:52.409Z,8.13
2023-02-28T09:44:45.113Z,8.51
2023-02-28T09:47:17.425Z,8.89
2023-02-28T09:49:47.395Z,9.26
2023-02-28T09:52:30.897Z,9.60
2023-02-28T09:55:28.936Z,9.92
2023-02-28T09:57:58.058Z,10.29
2023-02-28T10:00:33.836Z,10.61
2023-02-28T10:03:09.324Z,10.78
2023-02-28T10:05:44.557Z,10.93
2023-02-28T10:08:25.550Z,11.06
2023-02-28T10:10:56.278Z,11.27
2023-02-28T10:13:38.377Z,11.55
2023-02-28T10:16:17.969Z,11.80
2023-02-28T10:18:51.416Z,12.00
2023-02-28T10:21:35.346Z,12.21
2023-02-28T10:24:32.702Z,12.41
2023-02-28T10:27:19.170Z,12.64
2023-02-28T10:29:53.409Z,12.73
2023-02-28T10:32:25.166Z,12.76
2023-02-28T10:35:01.016Z,12.70
2023-02-28T10:37:29.010Z,12.69
2023-02-28T10:39:57.010Z,12.62
2023-02-28T10:42:27.063Z,12.64
2023-02-28T10:45:16.787Z,12.68
2023-02-28T10:47:50.622Z,12.68
2023-02-28T10:50:52.630Z,12.66
2023-02-28T10:53:25.145Z,12.54
2023-02-28T10:56:02.150Z,12.40
2023-02-28T10:59:02.101Z,12.27
2023-02-28T11:01:46.055Z,12.00
2023-02-28T11:04:33.784Z,11.96
2023-02-28T11:07:19.966Z,11.81
2023-02-28T11:09:58.840Z,11.87
2023-02-28T11:12:55.711Z,12.01
2023-02-28T11:15:33.697Z,12.15
2023-02-28T11:18:01.416Z,12.19
2023-02-28T11:20:31.431Z,12.28
2023-02-28T11:22:59.637Z,12.33
2023-02-28T11:25:31.497Z,12.39
2023-02-28T11:28:06.801Z,12.49
2023-02-28T11:30:41.017Z,12.65
2023-02-28T11:33:57.452Z,12.75
2023-02-28T11:36:32.151Z,12.95
2023-02-28T11:39:10.774Z,13.12
2023-02-28T11:42:17.251Z,13.24
2023-02-28T11:45:23.575Z,13.35
2023-02-28T11:48:33.032Z,13.43
2023-02-28T11:51:24.921Z,13.43
2023-02-28T11:54:06.944Z,13.38
2023-02-28T11:56:55.383Z,13.29
2023-02-28T12:00:18.344Z,13.22
2023-02-28T12:03:11.249Z,13.25
2023-02-28T12:05:53.393Z,13.51
2023-02-28T12:08:48.456Z,13.84
2023-02-28T12:11:54.163Z,14.15
2023-02-28T12:14:54.917Z,14.20
2023-02-28T12:17:30.835Z,14.00
2023-02-28T12:20:14.837Z,13.75
2023-02-28T12:23:17.857Z,13.46
2023-02-28T12:26:20.731Z,13.15
2023-02-28T12:28:53.440Z,12.92
2023-02-28T12:31:23.494Z,12.76
2023-02-28T12:34:03.009Z,12.67
2023-02-28T12:36:30.171Z,12.54
2023-02-28T12:39:22.905Z,12.39
2023-02-28T12:42:03.012Z,12.12
2023-02-28T12:44:46.898Z,11.94
2023-02-28T12:47:17.314Z,11.80
2023-02-28T12:50:03.179Z,11.67
2023-02-28T12:52:35.810Z,11.54
2023-02-28T12:55:16.928Z,11.44
2023-02-28T12:58:12.186Z,11.35
2023-02-28T13:01:03.028Z,11.27
2023-02-28T13:04:00.796Z,11.16
2023-02-28T13:06:58.232Z,11.05
2023-02-28T13:09:25.567Z,10.92
2023-02-28T13:11:54.047Z,10.80
2023-02-28T13:14:23.823Z,10.69
2023-02-28T13:16:59.403Z,10.59
2023-02-28T13:19:32.371Z,10.49
2023-02-28T13:22:00.180Z,10.42
2023-02-28T13:24:47.119Z,10.33
2023-02-28T13:27:15.612Z,10.19
2023-02-28T13:29:46.281Z,10.06
2023-02-28T13:32:13.373Z,9.98
2023-02-28T13:35:04.806Z,9.91
2023-02-28T13:37:36.581Z,9.85
2023-02-28T13:40:38.296Z,9.75
2023-02-28T13:43:09.176Z,9.59
2023-02-28T13:45:38.967Z,9.43
2023-02-28T13:48:19.353Z,9.28
2023-02-28T13:50:46.492Z,9.14
2023-02-28T13:53:16.770Z,9.02
2023-02-28T13:55:54.698Z,8.91
2023-02-28T13:58:59.017Z,8.80
2023-02-28T14:01:44.211Z,8.70
2023-02-28T14:04:47.316Z,8.61
2023-02-28T14:07:21.972Z,8.46
2023-02-28T14:10:09.237Z,8.26
2023-02-28T14:13:00.617Z,8.06
2023-02-28T14:16:02.887Z,7.89
2023-02-28T14:18:36.409Z,7.72
2023-02-28T14:21:36.139Z,7.55
2023-02-28T14:24:26.493Z,7.38
2023-02-28T14:27:24.775Z,7.19
2023-02-28T14:29:52.030Z,7.03
2023-02-28T14:32:59.572Z,6.91
2023-02-28T14:35:26.948Z,6.80
2023-02-28T14:37:54.918Z,6.71
2023-02-28T14:40:31.619Z,6.62
2023-02-28T14:43:05.026Z,6.54
2023-02-28T14:45:37.912Z,6.44
2023-02-28T14:48:10.288Z,6.28
2023-02-28T14:50:38.187Z,6.18
2023-02-28T14:53:07.476Z,6.05
2023-02-28T14:55:37.694Z,5.99
2023-02-28T14:58:08.018Z,5.93
2023-02-28T15:00:40.485Z,5.86
2023-02-28T15:03:35.742Z,5.76
2023-02-28T15:06:14.284Z,5.71
2023-02-28T15:08:41.754Z,5.66
2023-02-28T15:11:14.402Z,5.60
2023-02-28T15:13:46.574Z,5.53
2023-02-28T15:16:29.391Z,5.50
2023-02-28T15:19:23.315Z,5.45
2023-02-28T15:21:57.606Z,5.37
2023-02-28T15:24:44.313Z,5.30
2023-02-28T15:27:36.503Z,5.26
2023-02-28T15:30:13.988Z,5.22
2023-02-28T15:32:42.014Z,5.19
2023-02-28T15:35:30.474Z,5.15
2023-02-28T15:38:06.022Z,5.10
2023-02-28T15:40:41.827Z,5.07
2023-02-28T15:43:30.705Z,5.02
2023-02-28T15:46:08.921Z,4.98
2023-02-28T15:49:00.483Z,4.94
2023-02-28T15:51:37.730Z,4.90
2023-02-28T15:54:24.952Z,4.86
2023-02-28T15:56:55.718Z,4.82
2023-02-28T15:59:31.111Z,4.78
2023-02-28T16:02:18.450Z,4.73
2023-02-28T16:05:06.599Z,4.68
2023-02-28T16:07:38.342Z,4.62
2023-02-28T16:10:07.444Z,4.58
2023-02-28T16:12:37.507Z,4.53
2023-02-28T16:15:21.357Z,4.48
2023-02-28T16:17:48.940Z,4.41
2023-02-28T16:20:25.716Z,4.35
2023-02-28T16:22:53.075Z,4.30
2023-02-28T16:25:41.813Z,4.23
2023-02-28T16:28:26.313Z,4.17
2023-02-28T16:30:57.507Z,4.11
2023-02-28T16:33:24.209Z,4.05
2023-02-28T16:35:50.820Z,4.00
2023-02-28T16:38:17.599Z,3.95
2023-02-28T16:40:44.779Z,3.88
2023-02-28T16:43:24.451Z,3.83
2023-02-28T16:46:00.790Z,3.76
2023-02-28T16:48:28.056Z,3.71
2023-02-28T16:50:55.350Z,3.65
2023-02-28T16:53:22.056Z,3.59
2023-02-28T16:55:48.725Z,3.52
2023-02-28T16:58:17.573Z,3.44
2023-02-28T17:00:44.172Z,3.38
2023-02-28T17:03:32.596Z,3.30
2023-02-28T17:06:04.617Z,3.21
2023-02-28T17:08:32.412Z,3.13
2023-02-28T17:11:00.173Z,3.05
2023-02-28T17:13:27.386Z,2.96
2023-02-28T17:15:54.209Z,2.87
2023-02-28T17:18:21.546Z,2.79
2023-02-28T17:20:48.687Z,2.72
2023-02-28T17:23:16.280Z,2.64
2023-02-28T17:25:53.674Z,2.56
2023-02-28T17:28:22.513Z,2.48
2023-02-28T17:30:49.694Z,2.41
2023-02-28T17:33:16.429Z,2.34
2023-02-28T17:35:43.091Z,2.25
2023-02-28T17:38:19.332Z,2.18
2023-02-28T17:40:45.921Z,2.11
2023-02-28T17:43:12.518Z,2.43
2023-02-28T17:45:41.412Z,4.30
2023-02-28T17:48:12.108Z,5.62
2023-02-28T17:50:38.949Z,4.96
2023-02-28T17:53:05.539Z,4.17
2023-02-28T17:55:34.274Z,3.67
2023-02-28T17:58:01.586Z,3.31
2023-02-28T18:00:33.840Z,3.06
2023-02-28T18:03:00.728Z,2.84
2023-02-28T18:05:27.492Z,2.65
2023-02-28T18:07:54.182Z,2.48
2023-02-28T18:10:21.769Z,2.62
2023-02-28T18:12:50.737Z,4.33
2023-02-28T18:15:22.699Z,5.59
2023-02-28T18:17:50.016Z,4.89
2023-02-28T18:20:48.612Z,3.95
2023-02-28T18:23:17.841Z,3.45
2023-02-28T18:25:44.518Z,3.09
2023-02-28T18:28:11.120Z,2.81
2023-02-28T18:30:37.808Z,2.59
2023-02-28T18:33:04.751Z,2.38
2023-02-28T18:35:34.841Z,2.19
2023-02-28T18:38:05.465Z,2.01
2023-02-28T18:40:32.429Z,1.84
2023-02-28T18:42:59.245Z,1.70
2023-02-28T18:45:26.412Z,2.08
2023-02-28T18:47:53.032Z,3.96
2023-02-28T18:50:19.689Z,5.17
2023-02-28T18:52:46.633Z,4.42
2023-02-28T18:55:18.139Z,3.61
2023-02-28T18:57:46.719Z,3.04
2023-02-28T19:00:19.231Z,2.66
2023-02-28T19:02:45.864Z,2.37
2023-02-28T19:05:12.631Z,2.13
2023-02-28T19:07:40.346Z,1.92
2023-02-28T19:10:08.789Z,2.21
2023-02-28T19:12:41.749Z,4.05
2023-02-28T19:15:10.007Z,5.28
2023-02-28T19:17:37.033Z,4.48
2023-02-28T19:20:09.065Z,3.62
2023-02-28T19:22:36.503Z,3.02
2023-02-28T19:25:05.659Z,2.62
2023-02-28T19:27:32.332Z,2.31
2023-02-28T19:29:59.044Z,2.05
2023-02-28T19:32:26.583Z,2.25
2023-02-28T19:34:53.321Z,4.04
2023-02-28T19:37:19.959Z,5.23
2023-02-28T19:39:46.568Z,4.43
2023-02-28T19:42:16.711Z,3.57
2023-02-28T19:44:44.539Z,2.96
2023-02-28T19:47:12.417Z,2.53
2023-02-28T19:49:40.429Z,2.19
2023-02-28T19:52:09.105Z,1.91
2023-02-28T19:54:37.186Z,2.15
2023-02-28T19:57:03.933Z,3.98
2023-02-28T19:59:39.277Z,5.07
2023-02-28T20:02:16.883Z,4.18
2023-02-28T20:04:48.112Z,3.27
2023-02-28T20:07:21.494Z,2.67
2023-02-28T20:09:48.434Z,2.25
2023-02-28T20:12:24.195Z,1.91
2023-02-28T20:14:52.803Z,2.17
2023-02-28T20:17:19.422Z,4.02
2023-02-28T20:19:46.150Z,5.15
2023-02-28T20:22:12.979Z,4.28
2023-02-28T20:24:39.700Z,3.38
2023-02-28T20:27:06.611Z,2.75
2023-02-28T20:29:34.636Z,2.31
2023-02-28T20:32:01.765Z,2.56
2023-02-28T20:34:28.603Z,4.41
2023-02-28T20:36:56.224Z,5.38
2023-02-28T20:39:23.346Z,4.46
2023-02-28T20:41:50.209Z,3.51
2023-02-28T20:44:54.867Z,2.71
2023-02-28T20:47:21.562Z,2.26
2023-02-28T20:49:48.093Z,2.32
2023-02-28T20:52:14.715Z,4.01
2023-02-28T20:54:41.292Z,5.14
2023-02-28T20:57:07.967Z,4.29
2023-02-28T20:59:34.746Z,3.39
2023-02-28T21:02:01.363Z,2.75
2023-02-28T21:04:28.019Z,2.28
2023-02-28T21:06:54.642Z,1.90
2023-02-28T21:09:21.311Z,2.10
2023-02-28T21:11:48.944Z,3.84
2023-02-28T21:14:17.465Z,4.97
2023-02-28T21:16:44.293Z,4.12
2023-02-28T21:19:11.426Z,3.19
2023-02-28T21:21:44.722Z,2.55
2023-02-28T21:24:14.537Z,2.06
2023-02-28T21:26:43.948Z,1.69
2023-02-28T21:29:12.098Z,1.95
2023-02-28T21:31:39.359Z,3.78
2023-02-28T21:34:08.232Z,4.83
2023-02-28T21:36:44.921Z,3.93
2023-02-28T21:39:18.028Z,2.96
2023-02-28T21:41:45.286Z,2.29
2023-02-28T21:44:22.256Z,1.84
2023-02-28T21:46:56.299Z,2.02
2023-02-28T21:49:23.607Z,3.89
2023-02-28T21:51:50.206Z,4.90
2023-02-28T21:54:17.029Z,3.96
2023-02-28T21:56:44.124Z,3.04
2023-02-28T21:59:11.173Z,2.38
2023-02-28T22:01:43.664Z,1.89
2023-02-28T22:04:20.677Z,1.50
2023-02-28T22:06:58.772Z,1.94
2023-02-28T22:09:33.289Z,3.92
2023-02-28T22:12:00.133Z,4.55
2023-02-28T22:14:27.030Z,3.49
2023-02-28T22:16:56.277Z,2.63
2023-02-28T22:19:23.686Z,2.01
2023-02-28T22:21:53.162Z,1.56
2023-02-28T22:24:23.637Z,1.74
2023-02-28T22:26:52.044Z,3.55
2023-02-28T22:29:18.951Z,4.58
2023-02-28T22:31:45.813Z,3.66
2023-02-28T22:34:12.743Z,2.73
2023-02-28T22:36:42.510Z,2.07
2023-02-28T22:39:10.213Z,1.59
2023-02-28T22:41:37.412Z,1.25
2023-02-28T22:44:06.836Z,2.36
2023-02-28T22:46:34.846Z,3.97
2023-02-28T22:49:03.920Z,3.47
2023-02-28T22:51:31.050Z,2.51
2023-02-28T22:53:57.847Z,1.81
2023-02-28T22:56:27.362Z,1.32
2023-02-28T22:58:56.514Z,1.55
2023-02-28T23:01:25.836Z,3.37
2023-02-28T23:03:53.399Z,4.27
2023-02-28T23:06:29.849Z,3.28
2023-02-28T23:09:01.024Z,2.31
2023-02-28T23:11:38.851Z,1.65
2023-02-28T23:14:06.514Z,1.58
2023-02-28T23:16:36.392Z,3.24
2023-02-28T23:19:07.724Z,4.34
2023-02-28T23:21:35.243Z,3.40
2023-02-28T23:24:04.933Z,2.44
2023-02-28T23:26:32.479Z,1.77
2023-02-28T23:29:00.192Z,1.29
2023-02-28T23:31:26.783Z,1.51
2023-02-28T23:33:55.860Z,3.25
2023-02-28T23:36:23.249Z,4.15
2023-02-28T23:38:51.658Z,3.18
2023-02-28T23:41:20.745Z,2.24
2023-02-28T23:43:48.308Z,1.59
2023-02-28T23:46:16.263Z,1.10
2023-02-28T23:48:43.183Z,1.27
2023-02-28T23:51:17.851Z,3.00
2023-02-28T23:53:47.659Z,4.01
2023-02-28T23:56:18.773Z,3.06
2023-02-28T23:58:46.155Z,2.12
